sensor_id;sensor_type;location;lat;lon;timestamp;pressure;altitude;pressure_sealevel;temperature;humidity
59859;BME280;45734;53.648;9.566;2022-12-18T00:04:00;102805.59;;;-6.47;100.00
59859;BME280;45734;53.648;9.566;2022-12-18T00:09:02;102801.28;;;-6.50;100.00
59859;BME280;45734;53.648;9.566;2022-12-18T00:14:03;102825.47;;;-6.55;100.00
59859;BME280;45734;53.648;9.566;2022-12-18T00:19:04;102837.56;;;-6.61;100.00
59859;BME280;45734;53.648;9.566;2022-12-18T00:24:04;102827.19;;;-6.64;100.00
59859;BME280;45734;53.648;9.566;2022-12-18T00:29:11;102828.06;;;-6.65;100.00
59859;BME280;45734;53.648;9.566;2022-12-18T00:34:13;102819.44;;;-6.71;100.00
59859;BME280;45734;53.648;9.566;2022-12-18T00:39:14;102810.78;;;-6.73;100.00
59859;BME280;45734;53.648;9.566;2022-12-18T00:44:15;102822.88;;;-6.74;100.00
59859;BME280;45734;53.648;9.566;2022-12-18T00:49:18;102828.91;;;-6.81;100.00
59859;BME280;45734;53.648;9.566;2022-12-18T00:54:19;102833.25;;;-6.89;100.00
59859;BME280;45734;53.648;9.566;2022-12-18T00:59:19;102822.91;;;-6.89;100.00
59859;BME280;45734;53.648;9.566;2022-12-18T01:04:19;102810.78;;;-6.89;100.00
59859;BME280;45734;53.648;9.566;2022-12-18T01:09:20;102813.38;;;-6.89;100.00
59859;BME280;45734;53.648;9.566;2022-12-18T01:14:20;102817.69;;;-6.85;100.00
59859;BME280;45734;53.648;9.566;2022-12-18T01:19:20;102806.47;;;-6.77;100.00
59859;BME280;45734;53.648;9.566;2022-12-18T01:24:21;102821.16;;;-6.70;100.00
59859;BME280;45734;53.648;9.566;2022-12-18T01:29:21;102826.34;;;-6.66;100.00
59859;BME280;45734;53.648;9.566;2022-12-18T01:34:22;102840.16;;;-6.65;100.00
59859;BME280;45734;53.648;9.566;2022-12-18T01:39:22;102841.91;;;-6.66;100.00
59859;BME280;45734;53.648;9.566;2022-12-18T01:49:51;102852.25;;;-6.70;100.00
59859;BME280;45734;53.648;9.566;2022-12-18T01:54:53;102858.31;;;-6.70;100.00
59859;BME280;45734;53.648;9.566;2022-12-18T01:59:59;102860.88;;;-6.76;100.00
59859;BME280;45734;53.648;9.566;2022-12-18T02:05:02;102879.00;;;-6.84;100.00
59859;BME280;45734;53.648;9.566;2022-12-18T02:10:31;102887.66;;;-6.88;100.00
59859;BME280;45734;53.648;9.566;2022-12-18T02:15:58;102879.88;;;-6.91;100.00
59859;BME280;45734;53.648;9.566;2022-12-18T02:21:19;102881.63;;;-6.85;100.00
59859;BME280;45734;53.648;9.566;2022-12-18T02:26:53;102869.50;;;-6.88;100.00
59859;BME280;45734;53.648;9.566;2022-12-18T02:32:00;102852.22;;;-6.90;100.00
59859;BME280;45734;53.648;9.566;2022-12-18T02:37:04;102855.69;;;-6.91;100.00
59859;BME280;45734;53.648;9.566;2022-12-18T02:42:06;102866.91;;;-6.94;100.00
59859;BME280;45734;53.648;9.566;2022-12-18T02:47:11;102870.38;;;-6.92;100.00
59859;BME280;45734;53.648;9.566;2022-12-18T02:57:34;102877.25;;;-6.98;100.00
59859;BME280;45734;53.648;9.566;2022-12-18T03:02:42;102882.44;;;-6.98;100.00
59859;BME280;45734;53.648;9.566;2022-12-18T03:07:55;102875.50;;;-7.04;100.00
59859;BME280;45734;53.648;9.566;2022-12-18T03:13:05;102872.94;;;-7.12;100.00
59859;BME280;45734;53.648;9.566;2022-12-18T03:18:16;102869.47;;;-7.08;100.00
59859;BME280;45734;53.648;9.566;2022-12-18T03:23:20;102877.25;;;-7.04;100.00
59859;BME280;45734;53.648;9.566;2022-12-18T03:28:22;102892.78;;;-7.08;100.00
59859;BME280;45734;53.648;9.566;2022-12-18T03:33:29;102891.91;;;-7.11;100.00
59859;BME280;45734;53.648;9.566;2022-12-18T03:38:31;102898.78;;;-7.19;100.00
59859;BME280;45734;53.648;9.566;2022-12-18T03:48:44;102904.81;;;-7.33;100.00
59859;BME280;45734;53.648;9.566;2022-12-18T03:53:58;102899.63;;;-7.33;100.00
59859;BME280;45734;53.648;9.566;2022-12-18T03:59:02;102898.75;;;-7.33;100.00
59859;BME280;45734;53.648;9.566;2022-12-18T04:04:04;102895.31;;;-7.32;100.00
59859;BME280;45734;53.648;9.566;2022-12-18T04:09:05;102890.97;;;-7.36;100.00
59859;BME280;45734;53.648;9.566;2022-12-18T04:14:06;102890.97;;;-7.41;100.00
59859;BME280;45734;53.648;9.566;2022-12-18T04:19:06;102886.63;;;-7.46;100.00
59859;BME280;45734;53.648;9.566;2022-12-18T04:24:07;102877.13;;;-7.46;100.00
59859;BME280;45734;53.648;9.566;2022-12-18T04:29:07;102875.41;;;-7.47;100.00
59859;BME280;45734;53.648;9.566;2022-12-18T04:34:07;102881.41;;;-7.51;100.00
59859;BME280;45734;53.648;9.566;2022-12-18T04:39:07;102888.31;;;-7.53;100.00
59859;BME280;45734;53.648;9.566;2022-12-18T04:44:08;102870.16;;;-7.59;100.00
59859;BME280;45734;53.648;9.566;2022-12-18T04:49:08;102867.53;;;-7.65;100.00
59859;BME280;45734;53.648;9.566;2022-12-18T04:54:10;102868.41;;;-7.63;100.00
59859;BME280;45734;53.648;9.566;2022-12-18T04:59:10;102871.88;;;-7.61;100.00
59859;BME280;45734;53.648;9.566;2022-12-18T05:04:11;102885.69;;;-7.59;100.00
59859;BME280;45734;53.648;9.566;2022-12-18T05:09:11;102896.03;;;-7.64;100.00
59859;BME280;45734;53.648;9.566;2022-12-18T05:14:11;102898.59;;;-7.70;100.00
59859;BME280;45734;53.648;9.566;2022-12-18T05:19:11;102910.66;;;-7.70;100.00
59859;BME280;45734;53.648;9.566;2022-12-18T05:24:12;102919.28;;;-7.68;100.00
59859;BME280;45734;53.648;9.566;2022-12-18T05:29:12;102920.13;;;-7.68;100.00
59859;BME280;45734;53.648;9.566;2022-12-18T05:34:12;102925.31;;;-7.71;100.00
59859;BME280;45734;53.648;9.566;2022-12-18T05:39:13;102927.91;;;-7.72;100.00
59859;BME280;45734;53.648;9.566;2022-12-18T05:44:13;102939.97;;;-7.76;100.00
59859;BME280;45734;53.648;9.566;2022-12-18T05:49:13;102935.63;;;-7.77;100.00
59859;BME280;45734;53.648;9.566;2022-12-18T05:54:14;102936.47;;;-7.80;100.00
59859;BME280;45734;53.648;9.566;2022-12-18T05:59:14;102923.53;;;-7.77;100.00
59859;BME280;45734;53.648;9.566;2022-12-18T06:04:14;102925.31;;;-7.72;100.00
59859;BME280;45734;53.648;9.566;2022-12-18T06:09:14;102925.31;;;-7.69;100.00
59859;BME280;45734;53.648;9.566;2022-12-18T06:14:15;102925.31;;;-7.69;100.00
59859;BME280;45734;53.648;9.566;2022-12-18T06:19:17;102921.88;;;-7.68;100.00
59859;BME280;45734;53.648;9.566;2022-12-18T06:24:17;102932.25;;;-7.64;100.00
59859;BME280;45734;53.648;9.566;2022-12-18T06:29:17;102940.84;;;-7.68;100.00
59859;BME280;45734;53.648;9.566;2022-12-18T06:34:18;102930.47;;;-7.72;100.00
59859;BME280;45734;53.648;9.566;2022-12-18T06:39:18;102930.50;;;-7.69;100.00
59859;BME280;45734;53.648;9.566;2022-12-18T06:44:18;102935.66;;;-7.71;100.00
59859;BME280;45734;53.648;9.566;2022-12-18T06:49:19;102932.19;;;-7.75;100.00
59859;BME280;45734;53.648;9.566;2022-12-18T06:54:19;102943.38;;;-7.79;100.00
59859;BME280;45734;53.648;9.566;2022-12-18T06:59:20;102946.84;;;-7.78;100.00
59859;BME280;45734;53.648;9.566;2022-12-18T07:04:20;102945.97;;;-7.74;100.00
59859;BME280;45734;53.648;9.566;2022-12-18T07:09:20;102954.63;;;-7.75;100.00
59859;BME280;45734;53.648;9.566;2022-12-18T07:14:21;102959.81;;;-7.73;100.00
59859;BME280;45734;53.648;9.566;2022-12-18T07:19:21;102953.75;;;-7.71;100.00
59859;BME280;45734;53.648;9.566;2022-12-18T07:24:21;102958.97;;;-7.69;100.00
59859;BME280;45734;53.648;9.566;2022-12-18T07:29:21;102964.13;;;-7.69;100.00
59859;BME280;45734;53.648;9.566;2022-12-18T07:34:22;102971.91;;;-7.69;100.00
59859;BME280;45734;53.648;9.566;2022-12-18T07:39:22;102983.13;;;-7.69;100.00
59859;BME280;45734;53.648;9.566;2022-12-18T07:44:22;102980.53;;;-7.69;100.00
59859;BME280;45734;53.648;9.566;2022-12-18T07:49:23;102983.16;;;-7.64;100.00
59859;BME280;45734;53.648;9.566;2022-12-18T07:54:24;102997.00;;;-7.58;100.00
59859;BME280;45734;53.648;9.566;2022-12-18T07:59:24;102982.38;;;-7.51;100.00
59859;BME280;45734;53.648;9.566;2022-12-18T08:04:25;102972.06;;;-7.40;100.00
59859;BME280;45734;53.648;9.566;2022-12-18T08:09:25;102984.38;;;-7.01;100.00
59859;BME280;45734;53.648;9.566;2022-12-18T08:14:25;102984.47;;;-6.49;100.00
59859;BME280;45734;53.648;9.566;2022-12-18T08:19:26;102984.53;;;-5.95;100.00
59859;BME280;45734;53.648;9.566;2022-12-18T08:24:26;102968.00;;;-5.43;100.00
59859;BME280;45734;53.648;9.566;2022-12-18T08:29:26;102982.44;;;-4.75;100.00
59859;BME280;45734;53.648;9.566;2022-12-18T08:34:27;102982.91;;;-4.15;100.00
59859;BME280;45734;53.648;9.566;2022-12-18T08:39:27;102982.66;;;-3.87;100.00
59859;BME280;45734;53.648;9.566;2022-12-18T08:44:27;102987.69;;;-3.67;100.00
59859;BME280;45734;53.648;9.566;2022-12-18T08:49:40;103004.00;;;-3.45;100.00
59859;BME280;45734;53.648;9.566;2022-12-18T08:54:40;103003.81;;;-3.30;100.00
59859;BME280;45734;53.648;9.566;2022-12-18T08:59:41;103012.28;;;-3.08;100.00
59859;BME280;45734;53.648;9.566;2022-12-18T09:04:41;102994.69;;;-2.90;100.00
59859;BME280;45734;53.648;9.566;2022-12-18T09:09:41;102987.59;;;-2.82;100.00
59859;BME280;45734;53.648;9.566;2022-12-18T09:14:41;102990.09;;;-2.73;100.00
59859;BME280;45734;53.648;9.566;2022-12-18T09:19:42;102984.75;;;-2.65;100.00
59859;BME280;45734;53.648;9.566;2022-12-18T09:24:43;102992.81;;;-2.79;100.00
59859;BME280;45734;53.648;9.566;2022-12-18T09:29:43;102993.81;;;-2.94;100.00
59859;BME280;45734;53.648;9.566;2022-12-18T09:34:44;102987.31;;;-3.30;100.00
59859;BME280;45734;53.648;9.566;2022-12-18T09:39:44;102987.53;;;-3.49;100.00
59859;BME280;45734;53.648;9.566;2022-12-18T09:44:52;102987.72;;;-3.69;100.00
59859;BME280;45734;53.648;9.566;2022-12-18T09:49:57;102979.94;;;-3.73;100.00
59859;BME280;45734;53.648;9.566;2022-12-18T09:55:00;102986.03;;;-3.76;100.00
59859;BME280;45734;53.648;9.566;2022-12-18T10:05:20;102996.41;;;-3.70;100.00
59859;BME280;45734;53.648;9.566;2022-12-18T10:21:10;103002.44;;;-3.65;100.00
59859;BME280;45734;53.648;9.566;2022-12-18T10:26:12;103009.41;;;-3.70;100.00
59859;BME280;45734;53.648;9.566;2022-12-18T10:31:18;103002.47;;;-3.68;100.00
59859;BME280;45734;53.648;9.566;2022-12-18T10:36:20;102999.81;;;-3.63;100.00
59859;BME280;45734;53.648;9.566;2022-12-18T10:46:26;102983.06;;;-3.41;100.00
59859;BME280;45734;53.648;9.566;2022-12-18T10:51:33;102978.66;;;-3.32;100.00
59859;BME280;45734;53.648;9.566;2022-12-18T10:56:35;102986.38;;;-3.25;100.00
59859;BME280;45734;53.648;9.566;2022-12-18T11:01:55;102979.34;;;-3.18;100.00
59859;BME280;45734;53.648;9.566;2022-12-18T11:06:59;102965.41;;;-3.14;100.00
59859;BME280;45734;53.648;9.566;2022-12-18T11:12:04;102974.06;;;-3.10;100.00
59859;BME280;45734;53.648;9.566;2022-12-18T11:17:18;102964.53;;;-3.13;100.00
59859;BME280;45734;53.648;9.566;2022-12-18T11:22:22;102965.38;;;-3.12;100.00
59859;BME280;45734;53.648;9.566;2022-12-18T11:27:23;102972.31;;;-3.10;100.00
59859;BME280;45734;53.648;9.566;2022-12-18T11:32:40;102961.84;;;-3.05;100.00
59859;BME280;45734;53.648;9.566;2022-12-18T11:37:47;102955.59;;;-2.93;100.00
59859;BME280;45734;53.648;9.566;2022-12-18T11:42:52;102963.22;;;-2.80;100.00
59859;BME280;45734;53.648;9.566;2022-12-18T11:52:57;102937.03;;;-2.70;100.00
59859;BME280;45734;53.648;9.566;2022-12-18T11:58:09;102923.09;;;-2.69;100.00
59859;BME280;45734;53.648;9.566;2022-12-18T12:14:12;102916.06;;;-2.64;100.00
59859;BME280;45734;53.648;9.566;2022-12-18T12:19:39;102897.72;;;-2.60;100.00
59859;BME280;45734;53.648;9.566;2022-12-18T12:30:00;102858.34;;;-2.46;100.00
59859;BME280;45734;53.648;9.566;2022-12-18T12:40:19;102841.28;;;-2.16;100.00
59859;BME280;45734;53.648;9.566;2022-12-18T12:45:28;102837.56;;;-2.02;100.00
59859;BME280;45734;53.648;9.566;2022-12-18T12:50:34;102836.63;;;-1.98;100.00
59859;BME280;45734;53.648;9.566;2022-12-18T12:55:35;102833.09;;;-1.96;100.00
59859;BME280;45734;53.648;9.566;2022-12-18T13:00:40;102832.94;;;-1.88;100.00
59859;BME280;45734;53.648;9.566;2022-12-18T13:05:54;102836.34;;;-1.85;100.00
59859;BME280;45734;53.648;9.566;2022-12-18T13:10:58;102835.63;;;-1.93;100.00
59859;BME280;45734;53.648;9.566;2022-12-18T13:16:22;102820.19;;;-2.03;100.00
59859;BME280;45734;53.648;9.566;2022-12-18T13:21:28;102814.22;;;-2.10;100.00
59859;BME280;45734;53.648;9.566;2022-12-18T13:26:31;102816.09;;;-2.17;100.00
59859;BME280;45734;53.648;9.566;2022-12-18T13:36:41;102798.91;;;-2.30;100.00
59859;BME280;45734;53.648;9.566;2022-12-18T13:41:43;102824.19;;;-2.32;100.00
59859;BME280;45734;53.648;9.566;2022-12-18T13:46:44;102808.66;;;-2.40;100.00
59859;BME280;45734;53.648;9.566;2022-12-18T13:51:51;102802.72;;;-2.48;100.00
59859;BME280;45734;53.648;9.566;2022-12-18T13:56:52;102811.56;;;-2.55;100.00
59859;BME280;45734;53.648;9.566;2022-12-18T14:01:58;102811.59;;;-2.58;100.00
59859;BME280;45734;53.648;9.566;2022-12-18T14:12:05;102800.47;;;-2.69;100.00
59859;BME280;45734;53.648;9.566;2022-12-18T14:17:24;102793.69;;;-2.80;100.00
59859;BME280;45734;53.648;9.566;2022-12-18T14:22:25;102776.53;;;-2.93;100.00
59859;BME280;45734;53.648;9.566;2022-12-18T14:27:30;102780.19;;;-3.06;100.00
59859;BME280;45734;53.648;9.566;2022-12-18T14:32:30;102789.09;;;-3.20;100.00
59859;BME280;45734;53.648;9.566;2022-12-18T14:37:30;102773.63;;;-3.30;100.00
59859;BME280;45734;53.648;9.566;2022-12-18T14:42:31;102766.84;;;-3.44;100.00
59859;BME280;45734;53.648;9.566;2022-12-18T14:47:31;102763.56;;;-3.56;100.00
59859;BME280;45734;53.648;9.566;2022-12-18T14:52:32;102750.78;;;-3.75;100.00
59859;BME280;45734;53.648;9.566;2022-12-18T14:57:36;102747.50;;;-3.89;100.00
59859;BME280;45734;53.648;9.566;2022-12-18T15:02:38;102758.84;;;-3.95;100.00
59859;BME280;45734;53.648;9.566;2022-12-18T15:07:43;102751.97;;;-4.00;100.00
59859;BME280;45734;53.648;9.566;2022-12-18T15:12:49;102749.50;;;-4.10;100.00
59859;BME280;45734;53.648;9.566;2022-12-18T15:17:56;102734.88;;;-4.21;100.00
59859;BME280;45734;53.648;9.566;2022-12-18T15:22:57;102731.50;;;-4.31;100.00
59859;BME280;45734;53.648;9.566;2022-12-18T15:27:57;102723.81;;;-4.39;100.00
59859;BME280;45734;53.648;9.566;2022-12-18T15:33:24;102719.44;;;-4.38;100.00
59859;BME280;45734;53.648;9.566;2022-12-18T15:38:25;102698.59;;;-4.37;100.00
59859;BME280;45734;53.648;9.566;2022-12-18T15:43:26;102691.72;;;-4.39;100.00
59859;BME280;45734;53.648;9.566;2022-12-18T15:48:42;102674.41;;;-4.42;100.00
59859;BME280;45734;53.648;9.566;2022-12-18T15:53:44;102677.00;;;-4.42;100.00
59859;BME280;45734;53.648;9.566;2022-12-18T15:58:44;102673.53;;;-4.42;100.00
59859;BME280;45734;53.648;9.566;2022-12-18T16:03:45;102677.78;;;-4.37;100.00
59859;BME280;45734;53.648;9.566;2022-12-18T16:08:45;102677.75;;;-4.34;100.00
59859;BME280;45734;53.648;9.566;2022-12-18T16:13:46;102674.28;;;-4.33;100.00
59859;BME280;45734;53.648;9.566;2022-12-18T16:18:46;102653.44;;;-4.31;100.00
59859;BME280;45734;53.648;9.566;2022-12-18T16:23:46;102645.69;;;-4.34;100.00
59859;BME280;45734;53.648;9.566;2022-12-18T16:28:47;102642.25;;;-4.38;100.00
59859;BME280;45734;53.648;9.566;2022-12-18T16:33:47;102653.53;;;-4.37;100.00
59859;BME280;45734;53.648;9.566;2022-12-18T16:38:47;102657.91;;;-4.41;100.00
59859;BME280;45734;53.648;9.566;2022-12-18T16:43:48;102664.81;;;-4.40;100.00
59859;BME280;45734;53.648;9.566;2022-12-18T16:48:48;102650.97;;;-4.40;100.00
59859;BME280;45734;53.648;9.566;2022-12-18T16:53:48;102654.41;;;-4.40;100.00
59859;BME280;45734;53.648;9.566;2022-12-18T16:58:50;102624.09;;;-4.42;100.00
59859;BME280;45734;53.648;9.566;2022-12-18T17:03:55;102618.94;;;-4.44;100.00
59859;BME280;45734;53.648;9.566;2022-12-18T17:08:57;102611.09;;;-4.42;100.00
59859;BME280;45734;53.648;9.566;2022-12-18T17:13:58;102596.38;;;-4.42;100.00
59859;BME280;45734;53.648;9.566;2022-12-18T17:18:59;102600.69;;;-4.42;100.00
59859;BME280;45734;53.648;9.566;2022-12-18T17:24:00;102611.09;;;-4.39;100.00
59859;BME280;45734;53.648;9.566;2022-12-18T17:29:00;102595.44;;;-4.38;100.00
59859;BME280;45734;53.648;9.566;2022-12-18T17:34:02;102579.88;;;-4.39;100.00
59859;BME280;45734;53.648;9.566;2022-12-18T17:39:04;102579.88;;;-4.42;100.00
59859;BME280;45734;53.648;9.566;2022-12-18T17:44:05;102569.47;;;-4.41;100.00
59859;BME280;45734;53.648;9.566;2022-12-18T17:49:05;102557.31;;;-4.40;100.00
59859;BME280;45734;53.648;9.566;2022-12-18T17:54:06;102543.47;;;-4.42;100.00
59859;BME280;45734;53.648;9.566;2022-12-18T17:59:06;102533.03;;;-4.39;100.00
59859;BME280;45734;53.648;9.566;2022-12-18T18:04:06;102495.78;;;-4.41;100.00
59859;BME280;45734;53.648;9.566;2022-12-18T18:09:07;102493.13;;;-4.38;100.00
59859;BME280;45734;53.648;9.566;2022-12-18T18:14:12;102474.88;;;-4.37;100.00
59859;BME280;45734;53.648;9.566;2022-12-18T18:19:16;102486.13;;;-4.35;100.00
59859;BME280;45734;53.648;9.566;2022-12-18T18:24:18;102478.31;;;-4.33;100.00
59859;BME280;45734;53.648;9.566;2022-12-18T18:29:23;102475.63;;;-4.27;100.00
59859;BME280;45734;53.648;9.566;2022-12-18T18:34:27;102466.00;;;-4.23;100.00
59859;BME280;45734;53.648;9.566;2022-12-18T18:39:27;102449.50;;;-4.21;100.00
59859;BME280;45734;53.648;9.566;2022-12-18T18:44:28;102445.16;;;-4.20;100.00
59859;BME280;45734;53.648;9.566;2022-12-18T18:49:28;102434.75;;;-4.20;100.00
59859;BME280;45734;53.648;9.566;2022-12-18T18:54:30;102439.03;;;-4.18;100.00
59859;BME280;45734;53.648;9.566;2022-12-18T18:59:30;102424.28;;;-4.17;100.00
59859;BME280;45734;53.648;9.566;2022-12-18T19:04:32;102416.47;;;-4.16;100.00
59859;BME280;45734;53.648;9.566;2022-12-18T19:09:33;102402.50;;;-4.12;100.00
59859;BME280;45734;53.648;9.566;2022-12-18T19:14:35;102399.91;;;-4.12;100.00
59859;BME280;45734;53.648;9.566;2022-12-18T19:19:35;102392.06;;;-4.10;100.00
59859;BME280;45734;53.648;9.566;2022-12-18T19:24:36;102385.91;;;-4.06;100.00
59859;BME280;45734;53.648;9.566;2022-12-18T19:29:36;102388.47;;;-4.04;100.00
59859;BME280;45734;53.648;9.566;2022-12-18T19:34:37;102372.84;;;-4.04;100.00
59859;BME280;45734;53.648;9.566;2022-12-18T19:39:37;102372.00;;;-4.03;100.00
59859;BME280;45734;53.648;9.566;2022-12-18T19:44:37;102360.66;;;-4.01;100.00
59859;BME280;45734;53.648;9.566;2022-12-18T19:49:37;102336.28;;;-3.95;100.00
59859;BME280;45734;53.648;9.566;2022-12-18T19:54:38;102323.34;;;-4.00;100.00
59859;BME280;45734;53.648;9.566;2022-12-18T19:59:38;102322.38;;;-3.94;100.00
59859;BME280;45734;53.648;9.566;2022-12-18T20:04:39;102305.91;;;-3.95;100.00
59859;BME280;45734;53.648;9.566;2022-12-18T20:09:39;102317.09;;;-3.91;100.00
59859;BME280;45734;53.648;9.566;2022-12-18T20:14:39;102306.66;;;-3.90;100.00
59859;BME280;45734;53.648;9.566;2022-12-18T20:19:40;102302.25;;;-3.88;100.00
59859;BME280;45734;53.648;9.566;2022-12-18T20:24:40;102290.09;;;-3.87;100.00
59859;BME280;45734;53.648;9.566;2022-12-18T20:29:41;102296.16;;;-3.85;100.00
59859;BME280;45734;53.648;9.566;2022-12-18T20:34:42;102279.66;;;-3.85;100.00
59859;BME280;45734;53.648;9.566;2022-12-18T20:39:42;102286.56;;;-3.83;100.00
59859;BME280;45734;53.648;9.566;2022-12-18T20:44:43;102292.63;;;-3.84;100.00
59859;BME280;45734;53.648;9.566;2022-12-18T20:49:44;102293.53;;;-3.83;100.00
59859;BME280;45734;53.648;9.566;2022-12-18T20:54:44;102306.56;;;-3.85;100.00
59859;BME280;45734;53.648;9.566;2022-12-18T20:59:45;102320.47;;;-3.86;100.00
59859;BME280;45734;53.648;9.566;2022-12-18T21:04:45;102329.09;;;-3.84;100.00
59859;BME280;45734;53.648;9.566;2022-12-18T21:09:45;102337.78;;;-3.83;100.00
59859;BME280;45734;53.648;9.566;2022-12-18T21:14:46;102349.78;;;-3.76;100.00
59859;BME280;45734;53.648;9.566;2022-12-18T21:19:46;102339.34;;;-3.75;100.00
59859;BME280;45734;53.648;9.566;2022-12-18T21:24:46;102342.75;;;-3.73;100.00
59859;BME280;45734;53.648;9.566;2022-12-18T21:29:50;102320.22;;;-3.74;100.00
59859;BME280;45734;53.648;9.566;2022-12-18T21:34:51;102321.06;;;-3.73;100.00
59859;BME280;45734;53.648;9.566;2022-12-18T21:39:51;102308.03;;;-3.72;100.00
59859;BME280;45734;53.648;9.566;2022-12-18T21:44:52;102288.06;;;-3.71;100.00
59859;BME280;45734;53.648;9.566;2022-12-18T21:49:52;102292.41;;;-3.72;100.00
59859;BME280;45734;53.648;9.566;2022-12-18T21:54:53;102283.63;;;-3.68;100.00
59859;BME280;45734;53.648;9.566;2022-12-18T21:59:53;102273.91;;;-3.59;100.00
59859;BME280;45734;53.648;9.566;2022-12-18T22:04:53;102270.13;;;-3.46;100.00
59859;BME280;45734;53.648;9.566;2022-12-18T22:09:54;102262.03;;;-3.32;100.00
59859;BME280;45734;53.648;9.566;2022-12-18T22:14:54;102257.41;;;-3.20;100.00
59859;BME280;45734;53.648;9.566;2022-12-18T22:19:54;102256.19;;;-3.06;100.00
59859;BME280;45734;53.648;9.566;2022-12-18T22:24:54;102249.09;;;-3.00;100.00
59859;BME280;45734;53.648;9.566;2022-12-18T22:29:55;102234.94;;;-2.89;100.00
59859;BME280;45734;53.648;9.566;2022-12-18T22:35:05;102240.19;;;-2.91;100.00
59859;BME280;45734;53.648;9.566;2022-12-18T22:40:05;102228.88;;;-2.90;100.00
59859;BME280;45734;53.648;9.566;2022-12-18T22:45:06;102211.56;;;-2.92;100.00
59859;BME280;45734;53.648;9.566;2022-12-18T22:50:08;102202.97;;;-2.96;100.00
59859;BME280;45734;53.648;9.566;2022-12-18T22:55:09;102195.06;;;-2.93;100.00
59859;BME280;45734;53.648;9.566;2022-12-18T23:00:10;102193.41;;;-2.97;100.00
59859;BME280;45734;53.648;9.566;2022-12-18T23:05:10;102186.41;;;-2.95;100.00
59859;BME280;45734;53.648;9.566;2022-12-18T23:10:10;102163.69;;;-2.90;100.00
59859;BME280;45734;53.648;9.566;2022-12-18T23:15:11;102171.25;;;-2.79;100.00
59859;BME280;45734;53.648;9.566;2022-12-18T23:20:11;102158.16;;;-2.78;100.00
59859;BME280;45734;53.648;9.566;2022-12-18T23:25:12;102146.00;;;-2.79;100.00
59859;BME280;45734;53.648;9.566;2022-12-18T23:30:12;102147.69;;;-2.76;100.00
59859;BME280;45734;53.648;9.566;2022-12-18T23:35:13;102159.81;;;-2.75;100.00
59859;BME280;45734;53.648;9.566;2022-12-18T23:40:13;102155.44;;;-2.75;100.00
59859;BME280;45734;53.648;9.566;2022-12-18T23:45:14;102145.00;;;-2.73;100.00
59859;BME280;45734;53.648;9.566;2022-12-18T23:50:14;102145.78;;;-2.71;100.00
59859;BME280;45734;53.648;9.566;2022-12-18T23:55:14;102138.91;;;-2.74;100.00
